Time;durP1;ratioP1;P1;durP2;ratioP2;P2;SDS_P1;SDS_P2;PMS_P1;PMS_P2;Temp;Humidity;BMP_temperature;BMP_pressure;BME280_temperature;BME280_humidity;BME280_pressure;Samples;Min_cycle;Max_cycle;Signal;HPM_P1;HPM_P2
2023/03/19 00:02:16;;;;;;;;;;;;;;;;;;4984885;28;19922;-96
2023/03/19 00:04:45;;;;;;;;;;;;;;;;;;4948220;29;19923;-96
2023/03/19 00:07:11;;;;;;;;;;;;;;;;;;4946095;28;19926;-96
2023/03/19 00:09:37;;;;;;;;;;;;;;;;;;4976309;28;20499;-96
2023/03/19 00:12:03;;;;;;;;;;;;;;;;;;4953221;29;19922;-95
2023/03/19 00:14:29;;;;;;;;;;;;;;;;;;4950419;28;19922;-96
2023/03/19 00:16:55;;;;;;;;;;;;;;;;;;4961689;28;19972;-96
2023/03/19 00:19:21;;;;;;;;;;;;;;;;;;4967164;28;19933;-96
2023/03/19 00:21:47;;;;;;;;;;;;;;;;;;4964777;28;19922;-96
2023/03/19 00:24:16;;;;;;;;;;;;;;;;;;4977834;28;19922;-95
2023/03/19 00:26:45;;;;;;;;;;;;;;;;;;4971178;28;19933;-96
2023/03/19 00:29:11;;;;;;;;;;;;;;;;;;4980598;28;19923;-96
2023/03/19 00:31:37;;;;;;;;;;;;;;;;;;4977644;28;20057;-95
2023/03/19 00:34:03;;;;;;;;;;;;;;;;;;4978304;28;19930;-96
2023/03/19 00:36:30;;;;;;;;;;;;;;;;;;4992231;28;19952;-96
2023/03/19 00:38:56;;;;;;;;;;;;;;;;;;4963507;28;19950;-96
2023/03/19 00:41:22;;;;;;;;;;;;;;;;;;4952691;29;20010;-96
2023/03/19 00:43:48;;;;;;;;;;;;;;;;;;4952188;28;19953;-96
2023/03/19 00:46:14;;;;;;;;;;;;;;;;;;4960528;28;20392;-96
2023/03/19 00:48:40;;;;;;;;;;;;;;;;;;4960859;28;19926;-96
2023/03/19 00:51:06;;;;;;;;;;;;;;;;;;4960732;28;20005;-96
2023/03/19 00:53:32;;;;;;;;;;;;;;;;;;4962452;29;19922;-96
2023/03/19 00:55:58;;;;;;;;;;;;;;;;;;4983886;28;20474;-96
2023/03/19 00:58:24;;;;;;;;;;;;;;;;;;4960100;28;19922;-96
2023/03/19 01:00:50;;;;;;;;;;;;;;;;;;4954505;28;19929;-96
2023/03/19 01:03:16;;;;;;;;;;;;;;;;;;4962921;28;19965;-96
2023/03/19 01:05:45;;;;;;;;;;;;;;;;;;4987521;28;19979;-96
2023/03/19 01:08:11;;;;;;;;;;;;;;;;;;4953786;28;19927;-96
2023/03/19 01:10:38;;;;;;;;;;;;;;;;;;4966079;28;19954;-92
2023/03/19 01:15:39;;;;;;;;;;;;;;;;;;5207892;23;19926;-95
2023/03/19 01:18:06;;;;;;;;;;;;;;;;;;4959352;29;19993;-96
2023/03/19 01:20:32;;;;;;;;;;;;;;;;;;4962063;29;19923;-95
2023/03/19 01:22:58;;;;;;;;;;;;;;;;;;4934425;29;19978;-96
2023/03/19 01:25:26;;;;;;;;;;;;;;;;;;4968307;29;19922;-92
2023/03/19 01:27:56;;;;;;;;;;;;;;;;;;4970618;28;19927;-92
2023/03/19 01:30:39;;;;;;;;;;;;;;;;;;4987713;28;19966;-96
2023/03/19 01:33:13;;;;;;;;;;;;;;;;;;4960300;29;19926;-96
2023/03/19 01:35:39;;;;;;;;;;;;;;;;;;4933894;29;19922;-96
2023/03/19 01:38:05;;;;;;;;;;;;;;;;;;4939958;29;19929;-96
2023/03/19 01:40:31;;;;;;;;;;;;;;;;;;4938243;29;19974;-96
2023/03/19 01:42:57;;;;;;;;;;;;;;;;;;4937551;29;20340;-96
2023/03/19 01:45:23;;;;;;;;;;;;;;;;;;4952595;29;20005;-96
2023/03/19 01:47:49;;;;;;;;;;;;;;;;;;4938530;29;20001;-96
2023/03/19 01:50:15;;;;;;;;;;;;;;;;;;4949041;29;19923;-96
2023/03/19 01:52:54;;;;;;;;;;;;;;;;;;4958522;28;20400;-96
2023/03/19 01:55:20;;;;;;;;;;;;;;;;;;4969039;28;19933;-96
2023/03/19 01:57:46;;;;;;;;;;;;;;;;;;4941673;29;20013;-96
2023/03/19 02:00:13;;;;;;;;;;;;;;;;;;4934734;29;20430;-96
2023/03/19 02:02:39;;;;;;;;;;;;;;;;;;4938600;29;19923;-96
2023/03/19 02:05:05;;;;;;;;;;;;;;;;;;4935622;29;20015;-95
2023/03/19 02:07:30;;;;;;;;;;;;;;;;;;4927917;29;20376;-93
2023/03/19 02:09:56;;;;;;;;;;;;;;;;;;4930985;29;19922;-96
2023/03/19 02:12:22;;;;;;;;;;;;;;;;;;4931897;29;20743;-96
2023/03/19 02:14:48;;;;;;;;;;;;;;;;;;4950846;29;19926;-96
2023/03/19 02:17:14;;;;;;;;;;;;;;;;;;4939829;29;20304;-96
2023/03/19 02:19:40;;;;;;;;;;;;;;;;;;4936748;29;19930;-96
2023/03/19 02:22:06;;;;;;;;;;;;;;;;;;4955971;29;20380;-96
2023/03/19 02:24:32;;;;;;;;;;;;;;;;;;4942572;29;19926;-96
2023/03/19 02:26:58;;;;;;;;;;;;;;;;;;4939491;29;20018;-96
2023/03/19 02:29:24;;;;;;;;;;;;;;;;;;4939656;29;19998;-96
2023/03/19 02:31:53;;;;;;;;;;;;;;;;;;4928893;29;19930;-96
2023/03/19 02:34:20;;;;;;;;;;;;;;;;;;4956444;28;19985;-96
2023/03/19 02:36:46;;;;;;;;;;;;;;;;;;4968434;28;19972;-96
2023/03/19 02:39:12;;;;;;;;;;;;;;;;;;4937914;29;19927;-96
2023/03/19 02:41:37;;;;;;;;;;;;;;;;;;4937837;29;19926;-95
2023/03/19 02:44:03;;;;;;;;;;;;;;;;;;4935741;29;19978;-96
2023/03/19 02:46:29;;;;;;;;;;;;;;;;;;4955079;29;20598;-95
2023/03/19 02:48:55;;;;;;;;;;;;;;;;;;4936438;29;19923;-91
2023/03/19 02:51:22;;;;;;;;;;;;;;;;;;4939102;29;19923;-96
2023/03/19 02:53:48;;;;;;;;;;;;;;;;;;4936158;29;19922;-96
2023/03/19 02:56:14;;;;;;;;;;;;;;;;;;4928204;29;20014;-96
2023/03/19 02:58:40;;;;;;;;;;;;;;;;;;4935869;29;20018;-96
2023/03/19 03:01:06;;;;;;;;;;;;;;;;;;4919952;29;19970;-96
2023/03/19 03:03:32;;;;;;;;;;;;;;;;;;4933319;29;19922;-96
2023/03/19 03:05:58;;;;;;;;;;;;;;;;;;4939037;29;20432;-96
2023/03/19 03:08:23;;;;;;;;;;;;;;;;;;4931896;29;19931;-96
2023/03/19 03:10:49;;;;;;;;;;;;;;;;;;4943178;29;19922;-96
2023/03/19 03:13:16;;;;;;;;;;;;;;;;;;4953445;28;19994;-96
2023/03/19 03:15:41;;;;;;;;;;;;;;;;;;4972376;28;20391;-96
2023/03/19 03:21:02;;;;;;;;;;;;;;;;;;4958373;29;20273;-96
2023/03/19 03:23:28;;;;;;;;;;;;;;;;;;4964378;28;19922;-96
2023/03/19 03:25:54;;;;;;;;;;;;;;;;;;4951969;29;19980;-95
2023/03/19 03:31:08;;;;;;;;;;;;;;;;;;4941743;29;20373;-96
2023/03/19 03:33:34;;;;;;;;;;;;;;;;;;4931438;29;19974;-94
2023/03/19 03:36:00;;;;;;;;;;;;;;;;;;4948162;29;19922;-96
2023/03/19 03:38:26;;;;;;;;;;;;;;;;;;4942695;29;19973;-96
2023/03/19 03:40:52;;;;;;;;;;;;;;;;;;4928746;29;19938;-96
2023/03/19 03:43:19;;;;;;;;;;;;;;;;;;4932206;29;20388;-96
2023/03/19 03:45:46;;;;;;;;;;;;;;;;;;4955598;29;19922;-95
2023/03/19 03:48:12;;;;;;;;;;;;;;;;;;4939111;29;20299;-96
2023/03/19 03:50:38;;;;;;;;;;;;;;;;;;4936746;29;19922;-96
2023/03/19 03:53:03;;;;;;;;;;;;;;;;;;4939067;29;19927;-94
2023/03/19 03:55:30;;;;;;;;;;;;;;;;;;4935598;29;19971;-96
2023/03/19 03:57:56;;;;;;;;;;;;;;;;;;4971548;28;19994;-96
2023/03/19 04:00:22;;;;;;;;;;;;;;;;;;4941611;29;19923;-96
2023/03/19 04:02:48;;;;;;;;;;;;;;;;;;4941976;29;19930;-96
2023/03/19 04:05:15;;;;;;;;;;;;;;;;;;4937577;29;19927;-96
2023/03/19 04:07:41;;;;;;;;;;;;;;;;;;4932930;29;19989;-95
2023/03/19 04:10:08;;;;;;;;;;;;;;;;;;4940945;29;19950;-96
2023/03/19 04:12:34;;;;;;;;;;;;;;;;;;4942012;29;19926;-91
2023/03/19 04:15:00;;;;;;;;;;;;;;;;;;4934658;29;19945;-96
2023/03/19 04:17:26;;;;;;;;;;;;;;;;;;4946360;29;20396;-95
2023/03/19 04:19:52;;;;;;;;;;;;;;;;;;4933685;29;19922;-96
2023/03/19 04:22:18;;;;;;;;;;;;;;;;;;4944073;29;20337;-96
2023/03/19 04:24:44;;;;;;;;;;;;;;;;;;4936610;29;19922;-95
2023/03/19 04:27:10;;;;;;;;;;;;;;;;;;4964401;28;19977;-94
2023/03/19 04:29:37;;;;;;;;;;;;;;;;;;4944472;29;20284;-96
2023/03/19 04:32:03;;;;;;;;;;;;;;;;;;4942390;29;19969;-96
2023/03/19 04:34:29;;;;;;;;;;;;;;;;;;4934514;29;19922;-96
2023/03/19 04:36:56;;;;;;;;;;;;;;;;;;4934414;29;19969;-96
2023/03/19 04:39:22;;;;;;;;;;;;;;;;;;4942731;29;19926;-96
2023/03/19 04:41:47;;;;;;;;;;;;;;;;;;4948556;29;19923;-95
2023/03/19 04:44:13;;;;;;;;;;;;;;;;;;4940719;29;19923;-96
2023/03/19 04:46:39;;;;;;;;;;;;;;;;;;4922859;29;20017;-96
2023/03/19 04:49:05;;;;;;;;;;;;;;;;;;4952110;29;19972;-96
2023/03/19 04:51:32;;;;;;;;;;;;;;;;;;4941531;29;19922;-96
2023/03/19 04:53:57;;;;;;;;;;;;;;;;;;4941612;29;19923;-96
2023/03/19 04:56:23;;;;;;;;;;;;;;;;;;4941361;29;20304;-96
2023/03/19 04:58:49;;;;;;;;;;;;;;;;;;4949223;29;19974;-96
2023/03/19 05:01:15;;;;;;;;;;;;;;;;;;4941601;29;19978;-96
2023/03/19 05:03:41;;;;;;;;;;;;;;;;;;4928624;29;19923;-94
2023/03/19 05:06:07;;;;;;;;;;;;;;;;;;4936816;29;19938;-96
2023/03/19 05:08:33;;;;;;;;;;;;;;;;;;4940967;29;20304;-96
2023/03/19 05:10:59;;;;;;;;;;;;;;;;;;4929759;29;19922;-96
2023/03/19 05:13:25;;;;;;;;;;;;;;;;;;4967901;28;20344;-96
2023/03/19 05:15:51;;;;;;;;;;;;;;;;;;4929735;29;19922;-96
2023/03/19 05:18:17;;;;;;;;;;;;;;;;;;4927254;29;19974;-96
2023/03/19 05:20:43;;;;;;;;;;;;;;;;;;4937427;29;19927;-96
2023/03/19 05:23:09;;;;;;;;;;;;;;;;;;4951994;29;19922;-96
2023/03/19 05:25:35;;;;;;;;;;;;;;;;;;4941128;29;19922;-96
2023/03/19 05:28:01;;;;;;;;;;;;;;;;;;4961051;28;20006;-96
2023/03/19 05:30:42;;;;;;;;;;;;;;;;;;4929642;29;19930;-96
2023/03/19 05:33:08;;;;;;;;;;;;;;;;;;4939049;29;19922;-96
2023/03/19 05:35:34;;;;;;;;;;;;;;;;;;4941869;29;20005;-95
2023/03/19 05:38:00;;;;;;;;;;;;;;;;;;4938158;29;19922;-96
2023/03/19 05:40:26;;;;;;;;;;;;;;;;;;4940497;29;20372;-96
2023/03/19 05:42:52;;;;;;;;;;;;;;;;;;4940909;29;20379;-96
2023/03/19 05:45:18;;;;;;;;;;;;;;;;;;4937404;29;19929;-96
2023/03/19 05:47:43;;;;;;;;;;;;;;;;;;4928318;29;20026;-96
2023/03/19 05:50:10;;;;;;;;;;;;;;;;;;4935060;29;19982;-96
2023/03/19 05:52:36;;;;;;;;;;;;;;;;;;4938457;29;19981;-96
2023/03/19 05:55:03;;;;;;;;;;;;;;;;;;4936782;29;19927;-96
2023/03/19 05:57:29;;;;;;;;;;;;;;;;;;4947246;29;19923;-96
2023/03/19 05:59:55;;;;;;;;;;;;;;;;;;4931762;29;19933;-96
2023/03/19 06:02:21;;;;;;;;;;;;;;;;;;4938845;29;19922;-96
2023/03/19 06:04:47;;;;;;;;;;;;;;;;;;4934329;29;19945;-96
2023/03/19 06:07:12;;;;;;;;;;;;;;;;;;4942993;29;19934;-96
2023/03/19 06:09:39;;;;;;;;;;;;;;;;;;4944167;29;19923;-96
2023/03/19 06:12:05;;;;;;;;;;;;;;;;;;4929267;29;19923;-96
2023/03/19 06:14:40;;;;;;;;;;;;;;;;;;4929274;29;19970;-95
2023/03/19 06:17:06;;;;;;;;;;;;;;;;;;4930713;29;19923;-96
2023/03/19 06:19:32;;;;;;;;;;;;;;;;;;4933727;29;19930;-96
2023/03/19 06:21:58;;;;;;;;;;;;;;;;;;4934400;29;19941;-96
2023/03/19 06:24:24;;;;;;;;;;;;;;;;;;4973472;28;19929;-96
2023/03/19 06:26:50;;;;;;;;;;;;;;;;;;4970581;28;20013;-96
2023/03/19 06:29:18;;;;;;;;;;;;;;;;;;4934067;29;19922;-96
2023/03/19 06:31:44;;;;;;;;;;;;;;;;;;4935034;29;20028;-96
2023/03/19 06:34:10;;;;;;;;;;;;;;;;;;4939232;29;19971;-96
2023/03/19 06:36:36;;;;;;;;;;;;;;;;;;4940781;29;19948;-96
2023/03/19 06:39:02;;;;;;;;;;;;;;;;;;4938534;29;19930;-90
2023/03/19 06:41:30;;;;;;;;;;;;;;;;;;4944851;29;20010;-96
2023/03/19 06:43:55;;;;;;;;;;;;;;;;;;4957549;28;19969;-96
2023/03/19 06:46:22;;;;;;;;;;;;;;;;;;4935263;29;19923;-96
2023/03/19 06:48:47;;;;;;;;;;;;;;;;;;4929198;29;19922;-96
2023/03/19 06:51:14;;;;;;;;;;;;;;;;;;4961915;29;19973;-96
2023/03/19 06:53:39;;;;;;;;;;;;;;;;;;4959021;28;19962;-95
2023/03/19 06:56:06;;;;;;;;;;;;;;;;;;4960285;29;19922;-96
2023/03/19 06:58:31;;;;;;;;;;;;;;;;;;4943037;29;19958;-96
2023/03/19 07:00:57;;;;;;;;;;;;;;;;;;4944769;29;19947;-96
2023/03/19 07:03:24;;;;;;;;;;;;;;;;;;4949522;28;19928;-96
2023/03/19 07:05:50;;;;;;;;;;;;;;;;;;4948914;29;20355;-96
2023/03/19 07:08:16;;;;;;;;;;;;;;;;;;4936815;29;19926;-96
2023/03/19 07:10:42;;;;;;;;;;;;;;;;;;4963772;28;19945;-96
2023/03/19 07:13:08;;;;;;;;;;;;;;;;;;4947635;29;20396;-96
2023/03/19 07:15:35;;;;;;;;;;;;;;;;;;4946948;29;19926;-96
2023/03/19 07:18:01;;;;;;;;;;;;;;;;;;4949355;29;20005;-96
2023/03/19 07:20:27;;;;;;;;;;;;;;;;;;4973498;28;19926;-94
2023/03/19 07:22:53;;;;;;;;;;;;;;;;;;4957111;29;20292;-96
2023/03/19 07:25:19;;;;;;;;;;;;;;;;;;4949086;28;19926;-96
2023/03/19 07:27:51;;;;;;;;;;;;;;;;;;4960363;28;19927;-95
2023/03/19 07:30:17;;;;;;;;;;;;;;;;;;4942651;29;20492;-96
2023/03/19 07:32:43;;;;;;;;;;;;;;;;;;4938114;29;19930;-96
2023/03/19 07:35:09;;;;;;;;;;;;;;;;;;4959805;28;19929;-96
2023/03/19 07:37:35;;;;;;;;;;;;;;;;;;4940491;29;20052;-94
2023/03/19 07:40:01;;;;;;;;;;;;;;;;;;4938843;29;19992;-96
2023/03/19 07:42:27;;;;;;;;;;;;;;;;;;4942608;29;19923;-96
2023/03/19 07:47:24;;;;;;;;;;;;;;;;;;4961958;29;19933;-96
2023/03/19 07:49:50;;;;;;;;;;;;;;;;;;4945940;29;20009;-96
2023/03/19 07:52:17;;;;;;;;;;;;;;;;;;4938246;29;19958;-96
2023/03/19 07:54:43;;;;;;;;;;;;;;;;;;4945744;29;19922;-96
2023/03/19 07:57:09;;;;;;;;;;;;;;;;;;4966198;28;19930;-96
2023/03/19 07:59:35;;;;;;;;;;;;;;;;;;4945708;29;20368;-96
2023/03/19 08:02:01;;;;;;;;;;;;;;;;;;4942145;29;19933;-96
2023/03/19 08:04:27;;;;;;;;;;;;;;;;;;4930897;29;19923;-96
2023/03/19 08:06:53;;;;;;;;;;;;;;;;;;4933592;29;20265;-94
2023/03/19 08:09:19;;;;;;;;;;;;;;;;;;4939098;29;19922;-96
2023/03/19 08:11:45;;;;;;;;;;;;;;;;;;4940796;29;20376;-96
2023/03/19 08:14:11;;;;;;;;;;;;;;;;;;4941730;29;19950;-96
2023/03/19 08:16:37;;;;;;;;;;;;;;;;;;4969256;28;19929;-96
2023/03/19 08:19:03;;;;;;;;;;;;;;;;;;4948694;29;19947;-96
2023/03/19 08:21:29;;;;;;;;;;;;;;;;;;4939971;29;20393;-96
2023/03/19 08:23:55;;;;;;;;;;;;;;;;;;4926097;29;19937;-95
2023/03/19 08:26:21;;;;;;;;;;;;;;;;;;4928007;29;19923;-96
2023/03/19 08:28:47;;;;;;;;;;;;;;;;;;4937627;29;19922;-96
2023/03/19 08:31:13;;;;;;;;;;;;;;;;;;4941362;29;20098;-96
2023/03/19 08:33:39;;;;;;;;;;;;;;;;;;4956505;29;20009;-96
2023/03/19 08:36:05;;;;;;;;;;;;;;;;;;4963119;28;19923;-96
2023/03/19 08:38:31;;;;;;;;;;;;;;;;;;4941319;29;19977;-96
2023/03/19 08:41:01;;;;;;;;;;;;;;;;;;4941758;29;19923;-96
2023/03/19 08:43:26;;;;;;;;;;;;;;;;;;4942068;29;19929;-96
2023/03/19 08:45:52;;;;;;;;;;;;;;;;;;4938741;29;19923;-96
2023/03/19 08:48:18;;;;;;;;;;;;;;;;;;4935629;29;19926;-96
2023/03/19 08:50:44;;;;;;;;;;;;;;;;;;4939845;29;19984;-96
2023/03/19 08:53:10;;;;;;;;;;;;;;;;;;4929373;29;20254;-95
2023/03/19 08:55:36;;;;;;;;;;;;;;;;;;4954570;28;19926;-96
2023/03/19 08:58:02;;;;;;;;;;;;;;;;;;4946317;29;19930;-96
2023/03/19 09:00:35;;;;;;;;;;;;;;;;;;4947972;29;19922;-96
2023/03/19 09:03:01;;;;;;;;;;;;;;;;;;4935297;29;20007;-96
2023/03/19 09:05:27;;;;;;;;;;;;;;;;;;4936532;29;19929;-96
2023/03/19 09:07:53;;;;;;;;;;;;;;;;;;4934758;29;19966;-96
2023/03/19 09:10:19;;;;;;;;;;;;;;;;;;4939582;29;19929;-96
2023/03/19 09:12:45;;;;;;;;;;;;;;;;;;4938950;29;19930;-96
2023/03/19 09:15:10;;;;;;;;;;;;;;;;;;4934094;29;19923;-96
2023/03/19 09:17:36;;;;;;;;;;;;;;;;;;4938532;29;19950;-96
2023/03/19 09:20:02;;;;;;;;;;;;;;;;;;4939586;29;19929;-96
2023/03/19 09:22:28;;;;;;;;;;;;;;;;;;4939546;29;19929;-96
2023/03/19 09:24:54;;;;;;;;;;;;;;;;;;4934322;29;19930;-95
2023/03/19 09:27:20;;;;;;;;;;;;;;;;;;4936375;29;20027;-96
2023/03/19 09:29:46;;;;;;;;;;;;;;;;;;4940903;29;20520;-96
2023/03/19 09:35:15;;;;;;;;;;;;;;;;;;4951656;29;19922;-96
2023/03/19 09:37:41;;;;;;;;;;;;;;;;;;4931476;29;19923;-96
2023/03/19 09:40:07;;;;;;;;;;;;;;;;;;4927766;29;19923;-96
2023/03/19 09:42:33;;;;;;;;;;;;;;;;;;4945179;29;20029;-96
2023/03/19 09:44:59;;;;;;;;;;;;;;;;;;4934173;29;19922;-96
2023/03/19 09:47:25;;;;;;;;;;;;;;;;;;4932671;29;20423;-96
2023/03/19 09:49:51;;;;;;;;;;;;;;;;;;4944424;29;19929;-96
2023/03/19 09:52:18;;;;;;;;;;;;;;;;;;4933552;29;19923;-95
2023/03/19 09:54:45;;;;;;;;;;;;;;;;;;4940530;29;19944;-96
2023/03/19 09:57:10;;;;;;;;;;;;;;;;;;4934273;29;19930;-96
2023/03/19 09:59:36;;;;;;;;;;;;;;;;;;4950759;29;19927;-96
2023/03/19 10:02:03;;;;;;;;;;;;;;;;;;4941683;29;19949;-95
2023/03/19 10:04:29;;;;;;;;;;;;;;;;;;4948392;29;20001;-95
2023/03/19 10:06:55;;;;;;;;;;;;;;;;;;4946854;29;19931;-95
2023/03/19 10:09:21;;;;;;;;;;;;;;;;;;4943384;29;19985;-91
2023/03/19 10:11:49;;;;;;;;;;;;;;;;;;4950368;29;19934;-96
2023/03/19 10:14:15;;;;;;;;;;;;;;;;;;4964935;29;19926;-96
2023/03/19 10:16:42;;;;;;;;;;;;;;;;;;4952037;29;19969;-96
2023/03/19 10:19:10;;;;;;;;;;;;;;;;;;4944191;29;19929;-96
2023/03/19 10:21:35;;;;;;;;;;;;;;;;;;4950145;29;19922;-95
2023/03/19 10:24:02;;;;;;;;;;;;;;;;;;4960970;29;19981;-94
2023/03/19 10:26:28;;;;;;;;;;;;;;;;;;4959884;29;19937;-96
2023/03/19 10:28:54;;;;;;;;;;;;;;;;;;4943587;29;19930;-91
2023/03/19 10:31:20;;;;;;;;;;;;;;;;;;4939006;29;19933;-94
2023/03/19 10:33:51;;;;;;;;;;;;;;;;;;4947225;29;19918;-94
2023/03/19 10:36:22;;;;;;;;;;;;;;;;;;4949705;29;20447;-93
2023/03/19 10:38:49;;;;;;;;;;;;;;;;;;4957287;29;19933;-93
2023/03/19 10:41:15;;;;;;;;;;;;;;;;;;4945143;29;19965;-96
2023/03/19 10:43:41;;;;;;;;;;;;;;;;;;4961024;28;19962;-96
2023/03/19 10:46:09;;;;;;;;;;;;;;;;;;4942932;29;19922;-94
2023/03/19 10:48:35;;;;;;;;;;;;;;;;;;4965290;29;19927;-96
2023/03/19 10:51:01;;;;;;;;;;;;;;;;;;4939170;29;19933;-96
2023/03/19 10:53:27;;;;;;;;;;;;;;;;;;4948484;29;19929;-96
2023/03/19 10:55:53;;;;;;;;;;;;;;;;;;4953403;29;20431;-96
2023/03/19 10:58:19;;;;;;;;;;;;;;;;;;4953122;29;19945;-95
2023/03/19 11:00:45;;;;;;;;;;;;;;;;;;4952047;28;19954;-90
2023/03/19 11:55:08;;;;;;;;;;;;;;;;;;1099198;26;20226;-88
2023/03/19 11:57:48;;;;;;;;;;;;;;;;;;4952335;29;19994;-87
2023/03/19 12:00:17;;;;;;;;;;;;;;;;;;4951360;29;19961;-88
2023/03/19 12:02:46;;;;;;;;;;;;;;;;;;4954851;29;19977;-87
2023/03/19 12:05:12;;;;;;;;;;;;;;;;;;4944537;29;19974;-88
2023/03/19 12:07:45;;;;;;;;;;;;;;;;;;4973908;28;19927;-87
2023/03/19 12:10:11;;;;;;;;;;;;;;;;;;4949780;29;19938;-87
2023/03/19 12:12:41;;;;;;;;;;;;;;;;;;4967299;29;19985;-87
2023/03/19 12:15:08;;;;;;;;;;;;;;;;;;4947714;29;20001;-88
2023/03/19 12:17:50;;;;;;;;;;;;;;;;;;4955885;29;19953;-88
2023/03/19 12:20:20;;;;;;;;;;;;;;;;;;4974983;29;20022;-88
2023/03/19 12:22:46;;;;;;;;;;;;;;;;;;4940906;29;19994;-89
2023/03/19 12:25:22;;;;;;;;;;;;;;;;;;4950661;29;20399;-87
2023/03/19 12:27:54;;;;;;;;;;;;;;;;;;4939869;29;19915;-88
2023/03/19 12:30:42;;;;;;;;;;;;;;;;;;4961768;29;19927;-88
2023/03/19 12:33:37;;;;;;;;;;;;;;;;;;4976065;28;19921;-88
2023/03/19 12:36:03;;;;;;;;;;;;;;;;;;4956046;29;19922;-87
2023/03/19 12:38:48;;;;;;;;;;;;;;;;;;4955322;29;19929;-88
2023/03/19 12:41:17;;;;;;;;;;;;;;;;;;4974562;28;19970;-88
2023/03/19 12:46:47;;;;;;;;;;;;;;;;;;4972974;28;19937;-88
2023/03/19 12:49:14;;;;;;;;;;;;;;;;;;4939113;29;19930;-89
2023/03/19 12:51:40;;;;;;;;;;;;;;;;;;4942489;29;19926;-88
2023/03/19 12:54:06;;;;;;;;;;;;;;;;;;4952536;28;19922;-89
2023/03/19 12:56:38;;;;;;;;;;;;;;;;;;4968407;28;19961;-87
2023/03/19 13:02:11;;;;;;;;;;;;;;;;;;4998645;28;19929;-89
2023/03/19 13:04:56;;;;;;;;;;;;;;;;;;4953560;29;20382;-88
2023/03/19 13:07:28;;;;;;;;;;;;;;;;;;4963066;29;19931;-88
2023/03/19 13:09:59;;;;;;;;;;;;;;;;;;4946001;28;20536;-87
2023/03/19 13:12:25;;;;;;;;;;;;;;;;;;4953520;28;19927;-88
2023/03/19 13:14:51;;;;;;;;;;;;;;;;;;4942332;29;19933;-88
2023/03/19 13:17:17;;;;;;;;;;;;;;;;;;4943577;29;19926;-87
2023/03/19 13:19:43;;;;;;;;;;;;;;;;;;4946141;29;19997;-88
2023/03/19 13:22:11;;;;;;;;;;;;;;;;;;4935726;29;19923;-89
2023/03/19 13:24:37;;;;;;;;;;;;;;;;;;4942458;29;19922;-87
2023/03/19 13:27:13;;;;;;;;;;;;;;;;;;4968574;28;19942;-89
2023/03/19 13:29:40;;;;;;;;;;;;;;;;;;4964186;29;19922;-87
2023/03/19 13:32:07;;;;;;;;;;;;;;;;;;4950129;29;19922;-86
2023/03/19 13:34:34;;;;;;;;;;;;;;;;;;4951573;29;19923;-87
2023/03/19 13:37:00;;;;;;;;;;;;;;;;;;4952130;29;19929;-87
2023/03/19 13:39:28;;;;;;;;;;;;;;;;;;4936538;29;20363;-88
2023/03/19 13:41:54;;;;;;;;;;;;;;;;;;4946856;29;19922;-88
2023/03/19 13:44:20;;;;;;;;;;;;;;;;;;4962261;28;19922;-87
2023/03/19 13:46:46;;;;;;;;;;;;;;;;;;4948020;29;19930;-87
2023/03/19 13:49:13;;;;;;;;;;;;;;;;;;4943086;29;19922;-88
2023/03/19 13:51:43;;;;;;;;;;;;;;;;;;4962548;29;19922;-87
2023/03/19 13:54:10;;;;;;;;;;;;;;;;;;4953826;29;19922;-88
2023/03/19 13:56:37;;;;;;;;;;;;;;;;;;4970303;29;19922;-88
2023/03/19 13:59:13;;;;;;;;;;;;;;;;;;4952485;29;19922;-87
2023/03/19 14:01:47;;;;;;;;;;;;;;;;;;4949430;29;19923;-88
2023/03/19 14:04:13;;;;;;;;;;;;;;;;;;4937200;29;19923;-88
2023/03/19 14:06:44;;;;;;;;;;;;;;;;;;4954020;29;19922;-87
2023/03/19 14:09:13;;;;;;;;;;;;;;;;;;4943846;29;19923;-88
2023/03/19 14:11:39;;;;;;;;;;;;;;;;;;4940181;29;19948;-88
2023/03/19 14:14:05;;;;;;;;;;;;;;;;;;4939026;29;20336;-88
2023/03/19 14:16:31;;;;;;;;;;;;;;;;;;4961326;29;19922;-87
2023/03/19 14:18:57;;;;;;;;;;;;;;;;;;4943547;29;19929;-88
2023/03/19 14:21:34;;;;;;;;;;;;;;;;;;4969625;28;19934;-88
2023/03/19 14:24:22;;;;;;;;;;;;;;;;;;4967428;28;19930;-88
2023/03/19 14:27:03;;;;;;;;;;;;;;;;;;4967380;28;19927;-88
2023/03/19 14:29:29;;;;;;;;;;;;;;;;;;4943621;29;19934;-87
2023/03/19 14:31:59;;;;;;;;;;;;;;;;;;4950306;29;19976;-86
2023/03/19 14:34:35;;;;;;;;;;;;;;;;;;4955674;29;19969;-86
2023/03/19 14:37:02;;;;;;;;;;;;;;;;;;4954722;29;19923;-87
2023/03/19 14:39:31;;;;;;;;;;;;;;;;;;4941917;29;20005;-88
2023/03/19 14:41:57;;;;;;;;;;;;;;;;;;4959151;28;19922;-88
2023/03/19 14:44:23;;;;;;;;;;;;;;;;;;4947523;28;19988;-88
2023/03/19 14:46:49;;;;;;;;;;;;;;;;;;4945249;29;20009;-88
2023/03/19 14:49:15;;;;;;;;;;;;;;;;;;4946347;29;19930;-88
2023/03/19 14:51:41;;;;;;;;;;;;;;;;;;4950957;29;19930;-87
2023/03/19 14:54:07;;;;;;;;;;;;;;;;;;4947034;29;19922;-88
2023/03/19 14:56:33;;;;;;;;;;;;;;;;;;4943121;28;19906;-88
2023/03/19 14:59:06;;;;;;;;;;;;;;;;;;4964306;29;19929;-88
2023/03/19 15:01:40;;;;;;;;;;;;;;;;;;4970198;28;19922;-88
2023/03/19 15:04:06;;;;;;;;;;;;;;;;;;4962704;29;19923;-87
2023/03/19 15:06:33;;;;;;;;;;;;;;;;;;4944780;29;20021;-87
2023/03/19 15:11:39;;;;;;;;;;;;;;;;;;4962989;28;19950;-88
2023/03/19 15:14:05;;;;;;;;;;;;;;;;;;4955575;29;19926;-88
2023/03/19 15:16:31;;;;;;;;;;;;;;;;;;4937484;28;20376;-88
2023/03/19 15:18:57;;;;;;;;;;;;;;;;;;4950086;29;19930;-87
2023/03/19 15:21:23;;;;;;;;;;;;;;;;;;4950393;29;19944;-88
2023/03/19 15:23:49;;;;;;;;;;;;;;;;;;4950510;29;19929;-88
2023/03/19 15:26:17;;;;;;;;;;;;;;;;;;4966472;29;19933;-86
2023/03/19 15:28:43;;;;;;;;;;;;;;;;;;4951489;29;19935;-88
2023/03/19 15:31:09;;;;;;;;;;;;;;;;;;4950070;29;19933;-88
2023/03/19 15:33:35;;;;;;;;;;;;;;;;;;4947426;29;19922;-88
2023/03/19 15:36:02;;;;;;;;;;;;;;;;;;4944813;29;20017;-88
2023/03/19 15:38:30;;;;;;;;;;;;;;;;;;4965269;29;20009;-88
2023/03/19 15:40:56;;;;;;;;;;;;;;;;;;4939600;29;19926;-88
2023/03/19 15:43:22;;;;;;;;;;;;;;;;;;4949821;29;19926;-88
2023/03/19 15:45:52;;;;;;;;;;;;;;;;;;4945446;29;19922;-88
2023/03/19 15:48:18;;;;;;;;;;;;;;;;;;4965211;28;19977;-87
2023/03/19 15:50:44;;;;;;;;;;;;;;;;;;4949478;29;19978;-87
2023/03/19 15:53:10;;;;;;;;;;;;;;;;;;4949876;29;19989;-87
2023/03/19 15:55:36;;;;;;;;;;;;;;;;;;4954407;29;20387;-88
2023/03/19 15:58:02;;;;;;;;;;;;;;;;;;4949889;29;20451;-88
2023/03/19 16:00:28;;;;;;;;;;;;;;;;;;4942495;29;20051;-88
2023/03/19 16:02:54;;;;;;;;;;;;;;;;;;4965053;29;20513;-87
2023/03/19 16:05:20;;;;;;;;;;;;;;;;;;4946633;29;20017;-88
2023/03/19 16:07:46;;;;;;;;;;;;;;;;;;4947750;29;19969;-87
2023/03/19 16:10:12;;;;;;;;;;;;;;;;;;4950149;29;19998;-87
2023/03/19 16:12:38;;;;;;;;;;;;;;;;;;4941853;29;19974;-87
2023/03/19 16:15:04;;;;;;;;;;;;;;;;;;4954223;29;19923;-87
2023/03/19 16:17:30;;;;;;;;;;;;;;;;;;4941990;29;19922;-87
2023/03/19 16:19:56;;;;;;;;;;;;;;;;;;4939056;29;19959;-87
2023/03/19 16:22:22;;;;;;;;;;;;;;;;;;4941232;29;19989;-88
2023/03/19 16:24:48;;;;;;;;;;;;;;;;;;4957512;29;19926;-88
2023/03/19 16:27:14;;;;;;;;;;;;;;;;;;4941149;29;19994;-86
2023/03/19 16:29:42;;;;;;;;;;;;;;;;;;4949643;28;19930;-86
2023/03/19 16:32:08;;;;;;;;;;;;;;;;;;4963443;28;19922;-87
2023/03/19 16:34:34;;;;;;;;;;;;;;;;;;4940306;29;19985;-87
2023/03/19 16:37:02;;;;;;;;;;;;;;;;;;4936683;29;19923;-86
2023/03/19 16:39:28;;;;;;;;;;;;;;;;;;4947107;29;20053;-87
2023/03/19 16:41:54;;;;;;;;;;;;;;;;;;4930385;29;19927;-87
2023/03/19 16:44:21;;;;;;;;;;;;;;;;;;4944562;29;20363;-88
2023/03/19 16:46:47;;;;;;;;;;;;;;;;;;4943291;29;19966;-87
2023/03/19 16:49:13;;;;;;;;;;;;;;;;;;4951055;28;19922;-87
2023/03/19 16:51:39;;;;;;;;;;;;;;;;;;4945898;29;19922;-87
2023/03/19 16:54:05;;;;;;;;;;;;;;;;;;4937758;29;19930;-87
2023/03/19 16:56:31;;;;;;;;;;;;;;;;;;4944260;29;20009;-87
2023/03/19 16:58:57;;;;;;;;;;;;;;;;;;4964152;29;19965;-87
2023/03/19 17:01:23;;;;;;;;;;;;;;;;;;4944087;29;19923;-87
2023/03/19 17:03:49;;;;;;;;;;;;;;;;;;4959918;29;19927;-87
2023/03/19 17:06:15;;;;;;;;;;;;;;;;;;4947111;29;19945;-87
2023/03/19 17:08:41;;;;;;;;;;;;;;;;;;4940521;28;19931;-87
2023/03/19 17:11:07;;;;;;;;;;;;;;;;;;4946923;28;20041;-87
2023/03/19 17:13:33;;;;;;;;;;;;;;;;;;4945253;29;19923;-86
2023/03/19 17:15:59;;;;;;;;;;;;;;;;;;4946061;29;20005;-88
2023/03/19 17:18:25;;;;;;;;;;;;;;;;;;4964441;29;20017;-87
2023/03/19 17:20:51;;;;;;;;;;;;;;;;;;4931552;29;19934;-87
2023/03/19 17:23:17;;;;;;;;;;;;;;;;;;4948139;29;19923;-87
2023/03/19 17:25:44;;;;;;;;;;;;;;;;;;4964751;29;19922;-88
2023/03/19 17:28:10;;;;;;;;;;;;;;;;;;4948528;29;19926;-87
2023/03/19 17:30:36;;;;;;;;;;;;;;;;;;4939964;29;20007;-88
2023/03/19 17:33:02;;;;;;;;;;;;;;;;;;4936876;29;19966;-88
2023/03/19 17:35:30;;;;;;;;;;;;;;;;;;4935256;29;20017;-87
2023/03/19 17:37:56;;;;;;;;;;;;;;;;;;4942483;29;19927;-88
2023/03/19 17:40:22;;;;;;;;;;;;;;;;;;4937464;29;19990;-87
2023/03/19 17:42:48;;;;;;;;;;;;;;;;;;4948590;29;20280;-88
2023/03/19 17:45:14;;;;;;;;;;;;;;;;;;4946820;29;19929;-88
2023/03/19 17:47:40;;;;;;;;;;;;;;;;;;4957448;28;20344;-88
2023/03/19 17:50:07;;;;;;;;;;;;;;;;;;4946688;29;19950;-87
2023/03/19 17:52:35;;;;;;;;;;;;;;;;;;4963606;29;19929;-86
2023/03/19 17:55:02;;;;;;;;;;;;;;;;;;4940001;29;20383;-89
2023/03/19 17:57:28;;;;;;;;;;;;;;;;;;4946750;29;19923;-87
2023/03/19 17:59:54;;;;;;;;;;;;;;;;;;4944951;29;20513;-87